MMSD/SJD METAR and TAF weather

Enter ICAO airport designator
Station Type Date Time Source
MMSD METAR 2020/07/05 14:53 UTC NOAA

MMSD 051453Z 00000KT 10SM SCT160 31/17 A2989 RMK SLP102 5//// 967 8/030 CI


Station Type Date Time Source
MMSD Decoded METAR 2020/07/05 14:53 UTC NOAA

San Jose Del Cabo , Mexico (MMSD) 23-09N 109-42W
Jul 05, 2020 - 10:53 AM EDT / 2020.07.05 1453 UTC
Wind: Calm:0
Visibility: 10 mile(s):0
Sky conditions: partly cloudy
Temperature: 87 F (31 C)
Dew Point: 62 F (17 C)
Relative Humidity: 43%
Pressure (altimeter): 29.89 in. Hg (1012 hPa)
ob: MMSD 051453Z 00000KT 10SM SCT160 31/17 A2989 RMK SLP102 5//// 967 8/030 CI
cycle: 15

Station Type Date Time Source
MMSD TAF 2020/07/05 06:51 UTC NOAA

TAF MMSD 050443Z 0506/0606 00000KT P6SM SCT250
FM051800 14010KT P6SM SCT030 SCT250
FM060300 14005KT P6SM SCT250

Example: see airport list